createdAt,value
2019-06-10T00:02:33.772Z,64.91
2019-06-10T00:05:41.567Z,65.51
2019-06-10T00:08:50.484Z,65.14
2019-06-10T00:11:56.328Z,65.33
2019-06-10T00:15:03.386Z,65.59
2019-06-10T00:18:34.414Z,65.84
2019-06-10T00:21:21.581Z,65.61
2019-06-10T00:24:27.435Z,65.61
2019-06-10T00:27:33.843Z,65.50
2019-06-10T00:30:41.159Z,65.37
2019-06-10T00:33:47.877Z,65.23
2019-06-10T00:36:54.307Z,65.46
2019-06-10T00:40:03.580Z,66.18
2019-06-10T00:43:11.595Z,66.18
2019-06-10T00:46:17.202Z,66.16
2019-06-10T00:49:23.627Z,65.46
2019-06-10T00:52:30.856Z,65.29
2019-06-10T00:55:37.611Z,65.31
2019-06-10T00:58:44.139Z,65.40
2019-06-10T01:01:50.993Z,65.72
2019-06-10T01:04:57.500Z,65.52
2019-06-10T01:08:04.574Z,65.60
2019-06-10T01:11:20.242Z,64.77
2019-06-10T01:14:21.472Z,64.77
2019-06-10T01:17:27.560Z,65.30
2019-06-10T01:20:33.918Z,65.30
2019-06-10T01:23:41.632Z,65.06
2019-06-10T01:26:50.438Z,64.63
2019-06-10T01:29:56.222Z,65.00
2019-06-10T01:33:02.590Z,65.04
2019-06-10T01:36:12.570Z,64.67
2019-06-10T01:39:18.060Z,64.83
2019-06-10T01:42:24.828Z,64.45
2019-06-10T01:45:31.351Z,64.27
2019-06-10T01:48:44.112Z,64.25
2019-06-10T01:51:45.954Z,64.00
2019-06-10T01:54:52.402Z,64.17
2019-06-10T01:58:00.867Z,64.17
2019-06-10T02:01:23.156Z,64.49
2019-06-10T02:04:27.577Z,63.95
2019-06-10T02:07:34.031Z,64.28
2019-06-10T02:10:41.558Z,64.24
2019-06-10T02:13:48.294Z,64.01
2019-06-10T02:16:55.100Z,64.01
2019-06-10T02:20:01.597Z,63.90
2019-06-10T02:23:08.076Z,63.72
2019-06-10T02:26:15.301Z,63.72
2019-06-10T02:29:23.583Z,63.62
2019-06-10T02:32:36.241Z,63.53
2019-06-10T02:35:44.314Z,63.49
2019-06-10T02:38:46.268Z,63.78
2019-06-10T02:41:55.161Z,63.74
2019-06-10T02:45:03.765Z,63.54
2019-06-10T02:48:12.890Z,63.83
2019-06-10T02:51:20.430Z,63.88
2019-06-10T02:54:31.380Z,63.93
2019-06-10T02:57:39.635Z,64.06
2019-06-10T03:00:47.996Z,64.15
2019-06-10T03:03:53.949Z,63.91
2019-06-10T03:06:59.035Z,64.26
2019-06-10T03:10:06.068Z,64.02
2019-06-10T03:13:12.702Z,64.65
2019-06-10T03:16:25.835Z,64.50
2019-06-10T03:19:44.123Z,64.51
2019-06-10T03:22:42.320Z,64.57
2019-06-10T03:25:58.923Z,64.43
2019-06-10T03:29:05.405Z,64.71
2019-06-10T03:32:15.190Z,64.72
2019-06-10T03:35:19.790Z,64.70
2019-06-10T03:38:28.107Z,64.68
2019-06-10T03:41:34.382Z,64.66
2019-06-10T03:44:42.968Z,64.93
2019-06-10T03:47:49.099Z,64.73
2019-06-10T03:50:55.444Z,64.51
2019-06-10T03:54:02.519Z,64.73
2019-06-10T03:57:09.078Z,64.58
2019-06-10T04:00:17.351Z,64.59
2019-06-10T04:03:27.749Z,64.59
2019-06-10T04:06:33.873Z,64.47
2019-06-10T04:09:42.381Z,64.35
2019-06-10T04:12:48.486Z,64.16
2019-06-10T04:15:57.316Z,63.92
2019-06-10T04:19:04.114Z,64.06
2019-06-10T04:22:12.933Z,63.79
2019-06-10T04:25:19.584Z,63.52
2019-06-10T04:28:27.283Z,63.35
2019-06-10T04:31:33.842Z,63.22
2019-06-10T04:34:42.718Z,63.48
2019-06-10T04:37:48.467Z,63.16
2019-06-10T04:40:54.808Z,62.95
2019-06-10T04:44:02.688Z,63.02
2019-06-10T04:47:09.265Z,62.54
2019-06-10T04:50:26.102Z,62.47
2019-06-10T04:53:26.458Z,62.14
2019-06-10T04:56:33.607Z,62.17
2019-06-10T04:59:42.709Z,61.92
2019-06-10T05:02:48.241Z,61.28
2019-06-10T05:05:54.938Z,61.07
2019-06-10T05:09:01.217Z,60.69
2019-06-10T05:12:08.249Z,60.55
2019-06-10T05:15:14.916Z,60.43
2019-06-10T05:18:23.839Z,59.65
2019-06-10T05:21:33.544Z,59.62
2019-06-10T05:24:39.031Z,59.81
2019-06-10T05:27:45.439Z,57.95
2019-06-10T05:30:53.194Z,58.27
2019-06-10T05:33:59.728Z,58.89
2019-06-10T05:37:06.160Z,58.65
2019-06-10T05:40:13.130Z,57.45
2019-06-10T05:43:21.956Z,57.57
2019-06-10T05:46:28.709Z,57.44
2019-06-10T05:49:36.160Z,57.75
2019-06-10T05:52:43.578Z,57.35
2019-06-10T05:55:52.828Z,57.75
2019-06-10T05:59:01.494Z,57.75
2019-06-10T06:02:06.242Z,56.48
2019-06-10T06:05:12.954Z,56.86
2019-06-10T06:08:19.504Z,56.81
2019-06-10T06:11:27.665Z,55.67
2019-06-10T06:14:35.748Z,56.12
2019-06-10T06:17:43.141Z,56.27
2019-06-10T06:20:52.588Z,56.30
2019-06-10T06:23:59.213Z,55.35
2019-06-10T06:27:05.743Z,55.35
2019-06-10T06:30:18.744Z,55.71
2019-06-10T06:33:23.431Z,56.07
2019-06-10T06:36:31.257Z,54.42
2019-06-10T06:39:38.353Z,54.73
2019-06-10T06:42:44.805Z,54.59
2019-06-10T06:45:53.152Z,55.10
2019-06-10T06:48:59.206Z,54.78
2019-06-10T06:52:05.711Z,53.75
2019-06-10T06:55:13.944Z,54.28
2019-06-10T06:58:20.400Z,53.19
2019-06-10T07:01:26.860Z,52.81
2019-06-10T07:04:37.118Z,52.73
2019-06-10T07:07:44.227Z,52.55
2019-06-10T07:10:52.262Z,52.57
2019-06-10T07:14:03.680Z,51.74
2019-06-10T07:17:09.156Z,51.21
2019-06-10T07:20:15.831Z,51.37
2019-06-10T07:23:22.594Z,50.81
2019-06-10T07:26:29.291Z,51.43
2019-06-10T07:29:38.559Z,51.34
2019-06-10T07:32:47.120Z,50.25
2019-06-10T07:35:53.478Z,49.42
2019-06-10T07:39:00.259Z,49.31
2019-06-10T07:42:06.888Z,49.70
2019-06-10T07:45:13.478Z,47.81
2019-06-10T07:48:22.165Z,47.71
2019-06-10T07:51:28.208Z,47.19
2019-06-10T07:54:35.932Z,47.48
2019-06-10T07:57:45.267Z,47.14
2019-06-10T08:00:53.439Z,46.79
2019-06-10T08:03:59.505Z,46.79
2019-06-10T08:07:06.091Z,46.86
2019-06-10T08:10:14.358Z,46.80
2019-06-10T08:13:22.619Z,46.72
2019-06-10T08:16:29.202Z,46.72
2019-06-10T08:19:39.800Z,45.53
2019-06-10T08:22:50.774Z,45.79
2019-06-10T08:25:56.866Z,45.56
2019-06-10T08:29:04.165Z,45.59
2019-06-10T08:32:08.690Z,45.86
2019-06-10T08:35:15.163Z,46.90
2019-06-10T08:38:23.089Z,45.08
2019-06-10T08:41:32.127Z,45.04
2019-06-10T08:44:38.812Z,45.88
2019-06-10T08:47:47.712Z,46.16
2019-06-10T08:50:54.555Z,43.93
2019-06-10T08:54:02.386Z,43.83
2019-06-10T08:57:12.471Z,43.60
2019-06-10T09:00:22.690Z,44.03
2019-06-10T09:03:27.535Z,44.12
2019-06-10T09:06:34.109Z,43.87
2019-06-10T09:09:41.333Z,43.13
2019-06-10T09:12:51.337Z,43.31
2019-06-10T09:16:10.864Z,42.50
2019-06-10T09:19:05.590Z,43.01
2019-06-10T09:22:12.624Z,42.69
2019-06-10T09:25:19.271Z,41.54
2019-06-10T09:28:25.761Z,40.02
2019-06-10T09:31:33.380Z,41.89
2019-06-10T09:34:43.086Z,41.37
2019-06-10T09:37:51.584Z,42.45
2019-06-10T09:41:01.624Z,41.69
2019-06-10T09:44:05.450Z,41.82
2019-06-10T09:47:14.276Z,40.71
2019-06-10T09:50:26.994Z,41.03
2019-06-10T09:53:42.432Z,41.19
2019-06-10T09:56:45.097Z,41.73
2019-06-10T09:59:55.739Z,41.14
2019-06-10T10:02:58.256Z,40.48
2019-06-10T10:06:14.382Z,40.48
2019-06-10T10:09:12.890Z,40.02
2019-06-10T10:12:19.471Z,39.03
2019-06-10T10:15:30.767Z,39.78
2019-06-10T10:18:34.452Z,38.57
2019-06-10T10:21:45.631Z,38.52
2019-06-10T10:24:49.389Z,39.15
2019-06-10T10:27:57.581Z,37.58
2019-06-10T10:31:04.751Z,37.60
2019-06-10T10:34:13.477Z,37.17
2019-06-10T10:37:19.517Z,36.93
2019-06-10T10:40:26.116Z,35.92
2019-06-10T10:43:36.556Z,36.58
2019-06-10T10:46:40.791Z,36.86
2019-06-10T10:49:47.260Z,36.45
2019-06-10T10:52:53.987Z,35.93
2019-06-10T10:56:02.296Z,36.53
2019-06-10T10:59:08.610Z,36.24
2019-06-10T11:02:15.254Z,35.16
2019-06-10T11:05:33.578Z,35.20
2019-06-10T11:08:42.519Z,35.12
2019-06-10T11:11:49.061Z,33.96
2019-06-10T11:15:00.447Z,34.04
2019-06-10T11:18:04.340Z,33.20
2019-06-10T11:21:13.266Z,33.20
2019-06-10T11:24:35.501Z,33.24
2019-06-10T11:27:28.486Z,33.04
2019-06-10T11:30:34.993Z,33.08
2019-06-10T11:33:43.441Z,32.81
2019-06-10T11:36:53.530Z,32.72
2019-06-10T11:39:58.685Z,31.58
2019-06-10T11:43:05.304Z,31.35
2019-06-10T11:46:13.755Z,29.88
2019-06-10T11:49:19.994Z,29.42
2019-06-10T11:52:26.516Z,30.17
2019-06-10T11:55:34.200Z,30.59
2019-06-10T11:58:42.647Z,29.52
2019-06-10T12:01:50.294Z,28.98
2019-06-10T12:04:58.964Z,28.56
2019-06-10T12:08:05.438Z,28.64
2019-06-10T12:11:12.695Z,28.86
2019-06-10T12:14:19.438Z,27.09
2019-06-10T12:17:41.755Z,26.16
2019-06-10T12:20:35.039Z,29.12
2019-06-10T12:23:44.141Z,26.93
2019-06-10T12:26:53.482Z,26.92
2019-06-10T12:30:00.257Z,26.75
2019-06-10T12:33:07.170Z,26.59
2019-06-10T12:36:13.572Z,25.62
2019-06-10T12:39:22.732Z,26.65
2019-06-10T12:42:28.299Z,26.63
2019-06-10T12:45:34.904Z,26.01
2019-06-10T12:48:42.649Z,27.90
2019-06-10T12:51:49.604Z,27.41
2019-06-10T12:54:57.482Z,27.43
2019-06-10T12:58:05.997Z,27.43
2019-06-10T13:01:12.215Z,27.42
2019-06-10T13:04:18.931Z,27.42
2019-06-10T13:07:25.496Z,26.51
2019-06-10T13:10:42.990Z,26.80
2019-06-10T13:13:49.591Z,26.10
2019-06-10T13:16:56.114Z,28.19
2019-06-10T13:20:05.947Z,30.55
2019-06-10T13:23:20.267Z,31.70
2019-06-10T13:26:19.383Z,32.03
2019-06-10T13:29:25.879Z,31.72
2019-06-10T13:32:32.558Z,31.76
2019-06-10T13:35:39.302Z,34.32
2019-06-10T13:38:53.264Z,33.56
2019-06-10T13:42:05.029Z,34.89
2019-06-10T13:45:14.704Z,34.00
2019-06-10T13:48:25.653Z,34.62
2019-06-10T13:51:32.350Z,34.62
2019-06-10T13:54:39.185Z,35.37
2019-06-10T13:57:46.623Z,34.71
2019-06-10T14:00:54.121Z,34.70
2019-06-10T14:04:09.895Z,35.34
2019-06-10T14:07:12.665Z,34.66
2019-06-10T14:10:19.256Z,33.89
2019-06-10T14:13:28.518Z,33.04
2019-06-10T14:16:34.938Z,33.38
2019-06-10T14:19:43.256Z,33.36
2019-06-10T14:22:53.179Z,33.32
2019-06-10T14:26:03.237Z,33.18
2019-06-10T14:29:15.620Z,34.10
2019-06-10T14:32:22.392Z,33.25
2019-06-10T14:35:29.101Z,33.01
2019-06-10T14:38:35.829Z,33.02
2019-06-10T14:41:43.040Z,33.12
2019-06-10T14:44:49.720Z,33.43
2019-06-10T14:47:58.688Z,33.50
2019-06-10T14:51:05.370Z,33.07
2019-06-10T14:54:14.636Z,33.08
2019-06-10T14:57:22.701Z,33.01
2019-06-10T15:00:28.657Z,33.12
2019-06-10T15:03:35.163Z,32.64
2019-06-10T15:06:43.199Z,32.39
2019-06-10T15:09:52.493Z,32.50
2019-06-10T15:12:58.174Z,32.99
2019-06-10T15:16:04.985Z,32.30
2019-06-10T15:19:18.171Z,32.95
2019-06-10T15:22:20.032Z,32.21
2019-06-10T15:25:28.410Z,32.69
2019-06-10T15:28:34.909Z,32.88
2019-06-10T15:31:42.862Z,33.37
2019-06-10T15:34:49.462Z,34.16
2019-06-10T15:37:55.968Z,34.56
2019-06-10T15:41:02.322Z,35.46
2019-06-10T15:44:09.672Z,35.10
2019-06-10T15:47:19.412Z,34.60
2019-06-10T15:50:27.334Z,35.27
2019-06-10T15:53:33.035Z,35.58
2019-06-10T15:56:49.379Z,36.21
2019-06-10T15:59:47.650Z,36.06
2019-06-10T16:02:54.306Z,35.23
2019-06-10T16:06:02.917Z,35.35
2019-06-10T16:09:12.155Z,35.57
2019-06-10T16:12:19.958Z,35.57
2019-06-10T16:15:26.802Z,35.63
2019-06-10T16:18:33.338Z,35.31
2019-06-10T16:21:39.808Z,35.69
2019-06-10T16:24:46.381Z,35.61
2019-06-10T16:27:54.408Z,36.37
2019-06-10T16:31:02.775Z,36.37
2019-06-10T16:34:09.675Z,36.47
2019-06-10T16:37:17.045Z,36.88
2019-06-10T16:40:26.742Z,36.88
2019-06-10T16:43:33.678Z,37.30
2019-06-10T16:46:42.656Z,37.06
2019-06-10T16:49:48.680Z,37.20
2019-06-10T16:52:55.252Z,37.85
2019-06-10T16:56:03.327Z,38.33
2019-06-10T16:59:12.202Z,38.72
2019-06-10T17:02:19.209Z,38.79
2019-06-10T17:05:27.595Z,38.88
2019-06-10T17:08:34.100Z,39.51
2019-06-10T17:11:42.700Z,39.57
2019-06-10T17:14:49.291Z,39.26
2019-06-10T17:17:55.982Z,40.10
2019-06-10T17:21:03.685Z,40.10
2019-06-10T17:24:12.718Z,40.07
2019-06-10T17:27:22.282Z,40.15
2019-06-10T17:30:28.485Z,40.33
2019-06-10T17:33:36.116Z,40.12
2019-06-10T17:36:42.971Z,40.35
2019-06-10T17:39:49.490Z,40.47
2019-06-10T17:42:56.015Z,40.56
2019-06-10T17:46:03.349Z,40.47
2019-06-10T17:49:10.074Z,40.47
2019-06-10T17:52:16.460Z,40.59
2019-06-10T17:55:25.971Z,40.47
2019-06-10T17:58:43.335Z,40.89
2019-06-10T18:01:40.436Z,40.73
2019-06-10T18:04:47.050Z,40.88
2019-06-10T18:07:53.700Z,40.47
2019-06-10T18:11:00.134Z,40.80
2019-06-10T18:14:06.796Z,41.14
2019-06-10T18:17:13.235Z,41.60
2019-06-10T18:20:19.705Z,41.27
2019-06-10T18:23:26.514Z,41.84
2019-06-10T18:26:36.251Z,41.59
2019-06-10T18:29:42.624Z,41.50
2019-06-10T18:32:49.277Z,41.93
2019-06-10T18:35:55.817Z,42.31
2019-06-10T18:39:03.692Z,42.34
2019-06-10T18:42:12.642Z,42.32
2019-06-10T18:45:22.233Z,42.97
2019-06-10T18:48:29.016Z,42.92
2019-06-10T18:51:37.362Z,42.83
2019-06-10T18:54:44.635Z,42.50
2019-06-10T18:57:52.994Z,42.51
2019-06-10T19:01:05.267Z,42.96
2019-06-10T19:04:07.821Z,43.03
2019-06-10T19:07:14.298Z,43.34
2019-06-10T19:10:23.071Z,43.66
2019-06-10T19:13:29.562Z,43.91
2019-06-10T19:16:37.324Z,44.28
2019-06-10T19:19:44.326Z,43.50
2019-06-10T19:22:52.691Z,43.60
2019-06-10T19:25:59.253Z,42.88
2019-06-10T19:29:06.628Z,41.84
2019-06-10T19:32:13.183Z,41.14
2019-06-10T19:35:22.221Z,40.99
2019-06-10T19:38:28.070Z,41.49
2019-06-10T19:41:37.605Z,40.64
2019-06-10T19:44:45.593Z,40.72
2019-06-10T19:47:52.258Z,40.32
2019-06-10T19:50:58.857Z,39.84
2019-06-10T19:54:05.234Z,40.11
2019-06-10T19:57:12.871Z,40.79
2019-06-10T20:00:22.153Z,40.64
2019-06-10T20:03:29.280Z,41.12
2019-06-10T20:06:35.920Z,41.63
2019-06-10T20:09:46.113Z,41.04
2019-06-10T20:12:53.722Z,41.47
2019-06-10T20:16:03.645Z,41.82
2019-06-10T20:19:09.928Z,42.59
2019-06-10T20:22:16.487Z,42.56
2019-06-10T20:25:23.130Z,42.93
2019-06-10T20:28:32.176Z,43.80
2019-06-10T20:31:40.047Z,44.74
2019-06-10T20:34:49.632Z,45.72
2019-06-10T20:37:56.820Z,46.66
2019-06-10T20:41:03.543Z,46.92
2019-06-10T20:44:10.240Z,47.80
2019-06-10T20:47:16.657Z,48.88
2019-06-10T20:50:25.004Z,48.53
2019-06-10T20:53:33.549Z,48.93
2019-06-10T20:56:45.543Z,49.64
2019-06-10T20:59:51.379Z,50.35
2019-06-10T21:03:03.254Z,50.80
2019-06-10T21:06:13.036Z,51.70
2019-06-10T21:09:19.120Z,51.42
2019-06-10T21:12:25.620Z,52.10
2019-06-10T21:15:34.618Z,52.75
2019-06-10T21:18:45.251Z,53.25
2019-06-10T21:21:50.347Z,53.19
2019-06-10T21:24:57.368Z,53.20
2019-06-10T21:28:05.488Z,54.02
2019-06-10T21:31:13.417Z,54.66
2019-06-10T21:34:23.961Z,55.66
2019-06-10T21:37:32.037Z,55.27
2019-06-10T21:40:38.534Z,55.89
2019-06-10T21:43:49.387Z,55.75
2019-06-10T21:46:53.757Z,55.87
2019-06-10T21:50:00.310Z,54.49
2019-06-10T21:53:08.351Z,55.65
2019-06-10T21:56:14.918Z,55.33
2019-06-10T21:59:28.704Z,55.33
2019-06-10T22:02:38.477Z,56.77
2019-06-10T22:05:47.508Z,56.77
2019-06-10T22:08:56.712Z,57.02
2019-06-10T22:12:03.283Z,55.99
2019-06-10T22:15:12.289Z,57.79
2019-06-10T22:18:19.991Z,58.19
2019-06-10T22:21:27.348Z,58.43
2019-06-10T22:24:33.739Z,59.04
2019-06-10T22:27:47.860Z,59.20
2019-06-10T22:31:14.593Z,59.42
2019-06-10T22:34:07.273Z,59.23
2019-06-10T22:37:13.690Z,60.47
2019-06-10T22:40:22.383Z,60.58
2019-06-10T22:43:33.194Z,61.19
2019-06-10T22:46:43.511Z,62.00
2019-06-10T22:49:54.442Z,62.00
2019-06-10T22:52:59.735Z,63.54
2019-06-10T22:56:06.234Z,60.78
2019-06-10T22:59:13.249Z,62.59
2019-06-10T23:02:22.798Z,64.24
2019-06-10T23:05:28.990Z,65.14
2019-06-10T23:08:35.656Z,63.64
2019-06-10T23:11:42.483Z,64.99
2019-06-10T23:14:49.110Z,64.65
2019-06-10T23:17:57.098Z,63.43
2019-06-10T23:21:04.540Z,63.70
2019-06-10T23:24:13.409Z,64.97
2019-06-10T23:27:19.312Z,65.42
2019-06-10T23:30:25.722Z,65.60
2019-06-10T23:33:32.490Z,66.14
2019-06-10T23:36:38.994Z,66.64
2019-06-10T23:39:45.351Z,67.42
2019-06-10T23:42:53.116Z,64.32
2019-06-10T23:45:59.715Z,65.74
2019-06-10T23:49:06.233Z,67.05
2019-06-10T23:52:12.919Z,66.44
2019-06-10T23:55:19.284Z,66.70
2019-06-10T23:58:25.753Z,67.28
